sensor_id;sensor_type;location;lat;lon;timestamp;pressure;altitude;pressure_sealevel;temperature;humidity
21623;BME280;10973;46.706;12.340;2023-05-23T00:02:27;87412.81;;;13.70;51.18
21623;BME280;10973;46.706;12.340;2023-05-23T00:04:54;87418.91;;;13.67;51.31
21623;BME280;10973;46.706;12.340;2023-05-23T00:07:21;87412.84;;;13.63;51.35
21623;BME280;10973;46.706;12.340;2023-05-23T00:09:49;87412.13;;;13.59;51.50
21623;BME280;10973;46.706;12.340;2023-05-23T00:12:16;87411.78;;;13.53;51.48
21623;BME280;10973;46.706;12.340;2023-05-23T00:14:44;87413.69;;;13.53;51.58
21623;BME280;10973;46.706;12.340;2023-05-23T00:17:11;87415.97;;;13.51;51.75
21623;BME280;10973;46.706;12.340;2023-05-23T00:19:39;87415.22;;;13.47;51.69
21623;BME280;10973;46.706;12.340;2023-05-23T00:22:06;87409.53;;;13.45;51.92
21623;BME280;10973;46.706;12.340;2023-05-23T00:24:34;87407.28;;;13.43;51.88
21623;BME280;10973;46.706;12.340;2023-05-23T00:27:01;87414.47;;;13.43;51.82
21623;BME280;10973;46.706;12.340;2023-05-23T00:29:28;87405.44;;;13.37;51.85
21623;BME280;10973;46.706;12.340;2023-05-23T00:31:56;87412.59;;;13.36;51.78
21623;BME280;10973;46.706;12.340;2023-05-23T00:34:23;87408.47;;;13.35;51.99
21623;BME280;10973;46.706;12.340;2023-05-23T00:36:51;87407.72;;;13.35;52.07
21623;BME280;10973;46.706;12.340;2023-05-23T00:39:18;87402.06;;;13.29;52.16
21623;BME280;10973;46.706;12.340;2023-05-23T00:41:50;87399.38;;;13.36;52.06
21623;BME280;10973;46.706;12.340;2023-05-23T00:44:19;87402.03;;;13.36;51.83
21623;BME280;10973;46.706;12.340;2023-05-23T00:46:54;87406.91;;;13.38;51.82
21623;BME280;10973;46.706;12.340;2023-05-23T00:49:26;87400.13;;;13.37;51.89
21623;BME280;10973;46.706;12.340;2023-05-23T00:51:54;87400.91;;;13.37;51.79
21623;BME280;10973;46.706;12.340;2023-05-23T00:54:28;87395.25;;;13.35;51.76
21623;BME280;10973;46.706;12.340;2023-05-23T00:56:55;87394.47;;;13.35;51.70
21623;BME280;10973;46.706;12.340;2023-05-23T00:59:25;87398.28;;;13.30;51.96
21623;BME280;10973;46.706;12.340;2023-05-23T01:01:55;87400.91;;;13.30;51.99
21623;BME280;10973;46.706;12.340;2023-05-23T01:04:24;87398.66;;;13.29;51.95
21623;BME280;10973;46.706;12.340;2023-05-23T01:06:56;87394.91;;;13.26;51.99
21623;BME280;10973;46.706;12.340;2023-05-23T01:09:27;87392.63;;;13.28;51.82
21623;BME280;10973;46.706;12.340;2023-05-23T01:12:24;87389.25;;;13.21;51.88
21623;BME280;10973;46.706;12.340;2023-05-23T01:15:09;87394.94;;;13.12;51.84
21623;BME280;10973;46.706;12.340;2023-05-23T01:18:06;87395.72;;;12.99;51.98
21623;BME280;10973;46.706;12.340;2023-05-23T01:20:42;87400.66;;;12.93;52.31
21623;BME280;10973;46.706;12.340;2023-05-23T01:26:59;87395.75;;;12.84;52.48
21623;BME280;10973;46.706;12.340;2023-05-23T01:29:46;87399.19;;;12.78;52.67
21623;BME280;10973;46.706;12.340;2023-05-23T01:32:17;87397.28;;;12.75;52.64
21623;BME280;10973;46.706;12.340;2023-05-23T01:34:47;87403.38;;;12.72;52.47
21623;BME280;10973;46.706;12.340;2023-05-23T01:37:15;87406.75;;;12.69;52.43
21623;BME280;10973;46.706;12.340;2023-05-23T01:39:42;87407.16;;;12.67;52.86
21623;BME280;10973;46.706;12.340;2023-05-23T01:42:10;87410.16;;;12.66;52.80
21623;BME280;10973;46.706;12.340;2023-05-23T01:44:38;87408.66;;;12.61;52.42
21623;BME280;10973;46.706;12.340;2023-05-23T01:47:08;87399.59;;;12.59;52.79
21623;BME280;10973;46.706;12.340;2023-05-23T01:49:38;87403.75;;;12.60;52.88
21623;BME280;10973;46.706;12.340;2023-05-23T01:52:07;87396.97;;;12.55;53.07
21623;BME280;10973;46.706;12.340;2023-05-23T01:54:37;87398.47;;;12.53;53.07
21623;BME280;10973;46.706;12.340;2023-05-23T01:57:05;87396.59;;;12.50;52.96
21623;BME280;10973;46.706;12.340;2023-05-23T01:59:33;87397.34;;;12.50;53.07
21623;BME280;10973;46.706;12.340;2023-05-23T02:02:00;87405.28;;;12.50;53.01
21623;BME280;10973;46.706;12.340;2023-05-23T02:04:28;87406.44;;;12.49;52.64
21623;BME280;10973;46.706;12.340;2023-05-23T02:06:56;87398.88;;;12.44;52.73
21623;BME280;10973;46.706;12.340;2023-05-23T02:09:24;87403.00;;;12.38;52.81
21623;BME280;10973;46.706;12.340;2023-05-23T02:11:52;87401.91;;;12.39;53.19
21623;BME280;10973;46.706;12.340;2023-05-23T02:14:20;87404.94;;;12.38;53.04
21623;BME280;10973;46.706;12.340;2023-05-23T02:16:47;87397.38;;;12.33;53.09
21623;BME280;10973;46.706;12.340;2023-05-23T02:19:15;87400.03;;;12.33;53.05
21623;BME280;10973;46.706;12.340;2023-05-23T02:21:42;87392.84;;;12.33;53.35
21623;BME280;10973;46.706;12.340;2023-05-23T02:24:09;87396.63;;;12.32;53.38
21623;BME280;10973;46.706;12.340;2023-05-23T02:26:37;87399.25;;;12.32;53.49
21623;BME280;10973;46.706;12.340;2023-05-23T02:29:04;87396.25;;;12.30;53.49
21623;BME280;10973;46.706;12.340;2023-05-23T02:31:31;87400.38;;;12.31;53.48
21623;BME280;10973;46.706;12.340;2023-05-23T02:33:59;87392.06;;;12.29;53.43
21623;BME280;10973;46.706;12.340;2023-05-23T02:36:26;87388.31;;;12.30;52.97
21623;BME280;10973;46.706;12.340;2023-05-23T02:38:54;87389.06;;;12.27;53.10
21623;BME280;10973;46.706;12.340;2023-05-23T02:41:21;87383.41;;;12.25;53.48
21623;BME280;10973;46.706;12.340;2023-05-23T02:43:48;87387.56;;;12.23;53.50
21623;BME280;10973;46.706;12.340;2023-05-23T02:46:16;87390.59;;;12.21;53.24
21623;BME280;10973;46.706;12.340;2023-05-23T02:48:43;87387.94;;;12.21;53.26
21623;BME280;10973;46.706;12.340;2023-05-23T02:51:11;87379.66;;;12.12;53.33
21623;BME280;10973;46.706;12.340;2023-05-23T02:53:38;87383.44;;;12.07;53.39
21623;BME280;10973;46.706;12.340;2023-05-23T02:56:07;87376.25;;;12.08;53.28
21623;BME280;10973;46.706;12.340;2023-05-23T02:58:35;87382.28;;;12.05;53.34
21623;BME280;10973;46.706;12.340;2023-05-23T03:01:02;87373.63;;;12.01;53.46
21623;BME280;10973;46.706;12.340;2023-05-23T03:03:34;87375.88;;;11.99;53.70
21623;BME280;10973;46.706;12.340;2023-05-23T03:06:02;87369.09;;;11.98;53.22
21623;BME280;10973;46.706;12.340;2023-05-23T03:08:29;87369.09;;;11.94;53.44
21623;BME280;10973;46.706;12.340;2023-05-23T03:10:57;87363.44;;;11.89;53.47
21623;BME280;10973;46.706;12.340;2023-05-23T03:13:24;87368.72;;;11.85;53.86
21623;BME280;10973;46.706;12.340;2023-05-23T03:15:52;87367.97;;;11.85;53.32
21623;BME280;10973;46.706;12.340;2023-05-23T03:18:20;87375.13;;;11.81;53.38
21623;BME280;10973;46.706;12.340;2023-05-23T03:20:47;87369.06;;;11.77;53.40
21623;BME280;10973;46.706;12.340;2023-05-23T03:23:14;87369.09;;;11.73;53.67
21623;BME280;10973;46.706;12.340;2023-05-23T03:25:42;87368.72;;;11.71;53.65
21623;BME280;10973;46.706;12.340;2023-05-23T03:28:10;87362.69;;;11.67;53.56
21623;BME280;10973;46.706;12.340;2023-05-23T03:30:37;87367.97;;;11.67;53.92
21623;BME280;10973;46.706;12.340;2023-05-23T03:33:05;87372.81;;;11.55;54.30
21623;BME280;10973;46.706;12.340;2023-05-23T03:35:33;87365.63;;;11.59;53.98
21623;BME280;10973;46.706;12.340;2023-05-23T03:38:00;87368.28;;;11.66;54.19
21623;BME280;10973;46.706;12.340;2023-05-23T03:40:28;87366.41;;;11.66;53.80
21623;BME280;10973;46.706;12.340;2023-05-23T03:43:06;87363.38;;;11.64;54.09
21623;BME280;10973;46.706;12.340;2023-05-23T03:45:34;87375.81;;;11.64;54.35
21623;BME280;10973;46.706;12.340;2023-05-23T03:48:01;87368.66;;;11.64;53.86
21623;BME280;10973;46.706;12.340;2023-05-23T03:50:29;87368.69;;;11.61;54.50
21623;BME280;10973;46.706;12.340;2023-05-23T03:52:56;87365.66;;;11.62;54.55
21623;BME280;10973;46.706;12.340;2023-05-23T03:55:24;87372.03;;;11.54;54.94
21623;BME280;10973;46.706;12.340;2023-05-23T03:57:51;87370.91;;;11.55;55.10
21623;BME280;10973;46.706;12.340;2023-05-23T04:00:19;87370.19;;;11.65;55.06
21623;BME280;10973;46.706;12.340;2023-05-23T04:02:46;87369.44;;;11.68;54.77
21623;BME280;10973;46.706;12.340;2023-05-23T04:05:16;87372.47;;;11.70;54.67
21623;BME280;10973;46.706;12.340;2023-05-23T04:07:44;87370.94;;;11.66;54.36
21623;BME280;10973;46.706;12.340;2023-05-23T04:10:11;87378.50;;;11.67;54.62
21623;BME280;10973;46.706;12.340;2023-05-23T04:12:39;87383.41;;;11.69;54.39
21623;BME280;10973;46.706;12.340;2023-05-23T04:15:07;87367.97;;;11.67;54.61
21623;BME280;10973;46.706;12.340;2023-05-23T04:17:35;87379.25;;;11.68;54.73
21623;BME280;10973;46.706;12.340;2023-05-23T04:20:06;87372.06;;;11.61;54.81
21623;BME280;10973;46.706;12.340;2023-05-23T04:22:34;87366.03;;;11.57;54.67
21623;BME280;10973;46.706;12.340;2023-05-23T04:25:01;87366.41;;;11.56;54.77
21623;BME280;10973;46.706;12.340;2023-05-23T04:27:29;87381.47;;;11.55;54.92
21623;BME280;10973;46.706;12.340;2023-05-23T04:29:56;87377.72;;;11.56;54.84
21623;BME280;10973;46.706;12.340;2023-05-23T04:32:24;87376.19;;;11.55;54.82
21623;BME280;10973;46.706;12.340;2023-05-23T04:34:51;87374.31;;;11.52;55.33
21623;BME280;10973;46.706;12.340;2023-05-23T04:37:19;87378.44;;;11.46;55.26
21623;BME280;10973;46.706;12.340;2023-05-23T04:39:47;87378.06;;;11.55;54.83
21623;BME280;10973;46.706;12.340;2023-05-23T04:42:14;87376.19;;;11.55;55.11
21623;BME280;10973;46.706;12.340;2023-05-23T04:44:41;87378.44;;;11.57;55.38
21623;BME280;10973;46.706;12.340;2023-05-23T04:47:09;87378.06;;;11.55;55.23
21623;BME280;10973;46.706;12.340;2023-05-23T04:49:36;87368.69;;;11.61;55.28
21623;BME280;10973;46.706;12.340;2023-05-23T04:52:04;87371.69;;;11.63;55.15
21623;BME280;10973;46.706;12.340;2023-05-23T04:54:31;87366.81;;;11.68;55.44
21623;BME280;10973;46.706;12.340;2023-05-23T04:56:59;87362.28;;;11.69;55.43
21623;BME280;10973;46.706;12.340;2023-05-23T04:59:26;87370.22;;;11.69;55.46
21623;BME280;10973;46.706;12.340;2023-05-23T05:01:53;87365.69;;;11.69;55.84
21623;BME280;10973;46.706;12.340;2023-05-23T05:04:21;87366.44;;;11.70;55.83
21623;BME280;10973;46.706;12.340;2023-05-23T05:06:48;87364.56;;;11.74;55.91
21623;BME280;10973;46.706;12.340;2023-05-23T05:09:16;87373.22;;;11.78;56.02
21623;BME280;10973;46.706;12.340;2023-05-23T05:11:43;87364.19;;;11.82;55.97
21623;BME280;10973;46.706;12.340;2023-05-23T05:14:11;87370.22;;;11.90;55.68
21623;BME280;10973;46.706;12.340;2023-05-23T05:16:38;87369.47;;;11.93;56.11
21623;BME280;10973;46.706;12.340;2023-05-23T05:19:06;87361.16;;;11.98;56.06
21623;BME280;10973;46.706;12.340;2023-05-23T05:21:34;87357.78;;;12.01;56.01
21623;BME280;10973;46.706;12.340;2023-05-23T05:24:01;87354.38;;;12.07;56.33
21623;BME280;10973;46.706;12.340;2023-05-23T05:26:29;87357.38;;;12.13;56.39
21623;BME280;10973;46.706;12.340;2023-05-23T05:28:56;87355.88;;;12.19;56.32
21623;BME280;10973;46.706;12.340;2023-05-23T05:31:23;87355.84;;;12.30;56.51
21623;BME280;10973;46.706;12.340;2023-05-23T05:33:51;87349.03;;;12.43;56.58
21623;BME280;10973;46.706;12.340;2023-05-23T05:36:19;87347.50;;;12.56;56.62
21623;BME280;10973;46.706;12.340;2023-05-23T05:38:46;87348.59;;;12.69;56.46
21623;BME280;10973;46.706;12.340;2023-05-23T05:41:14;87348.91;;;12.85;56.49
21623;BME280;10973;46.706;12.340;2023-05-23T05:43:41;87347.75;;;12.97;56.23
21623;BME280;10973;46.706;12.340;2023-05-23T05:46:10;87348.47;;;13.08;56.05
21623;BME280;10973;46.706;12.340;2023-05-23T05:48:37;87339.00;;;13.14;56.23
21623;BME280;10973;46.706;12.340;2023-05-23T05:51:05;87345.34;;;13.27;55.96
21623;BME280;10973;46.706;12.340;2023-05-23T05:53:32;87342.66;;;13.37;55.82
21623;BME280;10973;46.706;12.340;2023-05-23T05:56:01;87350.13;;;13.49;56.27
21623;BME280;10973;46.706;12.340;2023-05-23T05:58:28;87342.50;;;13.62;56.47
21623;BME280;10973;46.706;12.340;2023-05-23T06:00:56;87346.19;;;13.79;56.49
21623;BME280;10973;46.706;12.340;2023-05-23T06:03:24;87337.41;;;13.89;56.69
21623;BME280;10973;46.706;12.340;2023-05-23T06:05:52;87341.13;;;13.98;56.83
21623;BME280;10973;46.706;12.340;2023-05-23T06:08:19;87338.00;;;14.10;56.81
21623;BME280;10973;46.706;12.340;2023-05-23T06:10:47;87333.78;;;14.16;56.69
21623;BME280;10973;46.706;12.340;2023-05-23T06:13:14;87338.63;;;14.25;56.59
21623;BME280;10973;46.706;12.340;2023-05-23T06:15:42;87329.50;;;14.33;56.51
21623;BME280;10973;46.706;12.340;2023-05-23T06:18:10;87339.66;;;14.42;56.34
21623;BME280;10973;46.706;12.340;2023-05-23T06:20:38;87339.53;;;14.52;56.33
21623;BME280;10973;46.706;12.340;2023-05-23T06:23:05;87340.94;;;14.64;56.47
21623;BME280;10973;46.706;12.340;2023-05-23T06:25:33;87333.28;;;14.73;56.31
21623;BME280;10973;46.706;12.340;2023-05-23T06:28:00;87324.84;;;14.81;55.66
21623;BME280;10973;46.706;12.340;2023-05-23T06:30:28;87324.34;;;14.93;55.86
21623;BME280;10973;46.706;12.340;2023-05-23T06:32:56;87316.66;;;15.02;55.50
21623;BME280;10973;46.706;12.340;2023-05-23T06:35:24;87315.03;;;15.12;54.82
21623;BME280;10973;46.706;12.340;2023-05-23T06:37:51;87318.28;;;15.23;54.39
21623;BME280;10973;46.706;12.340;2023-05-23T06:40:19;87310.94;;;15.34;54.02
21623;BME280;10973;46.706;12.340;2023-05-23T06:42:46;87315.75;;;15.43;53.96
21623;BME280;10973;46.706;12.340;2023-05-23T06:45:13;87314.25;;;15.45;54.13
21623;BME280;10973;46.706;12.340;2023-05-23T06:47:42;87315.19;;;15.58;54.26
21623;BME280;10973;46.706;12.340;2023-05-23T06:50:10;87304.88;;;15.64;54.00
21623;BME280;10973;46.706;12.340;2023-05-23T06:52:38;87309.31;;;15.74;53.59
21623;BME280;10973;46.706;12.340;2023-05-23T06:55:06;87300.47;;;15.81;53.18
21623;BME280;10973;46.706;12.340;2023-05-23T06:57:33;87302.31;;;15.84;52.43
21623;BME280;10973;46.706;12.340;2023-05-23T07:00:01;87305.97;;;15.93;51.66
21623;BME280;10973;46.706;12.340;2023-05-23T07:02:28;87296.75;;;16.01;51.99
21623;BME280;10973;46.706;12.340;2023-05-23T07:04:55;87300.38;;;16.11;52.29
21623;BME280;10973;46.706;12.340;2023-05-23T07:07:23;87296.38;;;16.22;51.83
21623;BME280;10973;46.706;12.340;2023-05-23T07:09:50;87300.50;;;16.27;51.35
21623;BME280;10973;46.706;12.340;2023-05-23T07:12:18;87296.63;;;16.31;50.46
21623;BME280;10973;46.706;12.340;2023-05-23T07:14:46;87291.19;;;16.38;49.74
21623;BME280;10973;46.706;12.340;2023-05-23T07:17:13;87298.25;;;16.49;50.18
21623;BME280;10973;46.706;12.340;2023-05-23T07:19:41;87288.31;;;16.53;49.77
21623;BME280;10973;46.706;12.340;2023-05-23T07:22:08;87287.09;;;16.57;49.56
21623;BME280;10973;46.706;12.340;2023-05-23T07:24:35;87279.00;;;16.64;49.28
21623;BME280;10973;46.706;12.340;2023-05-23T07:27:03;87282.63;;;16.74;49.64
21623;BME280;10973;46.706;12.340;2023-05-23T07:29:30;87276.09;;;16.78;49.14
21623;BME280;10973;46.706;12.340;2023-05-23T07:31:58;87267.53;;;16.87;48.69
21623;BME280;10973;46.706;12.340;2023-05-23T07:34:25;87269.31;;;16.93;48.95
21623;BME280;10973;46.706;12.340;2023-05-23T07:36:53;87263.44;;;17.02;49.61
21623;BME280;10973;46.706;12.340;2023-05-23T07:39:20;87268.16;;;17.14;49.56
21623;BME280;10973;46.706;12.340;2023-05-23T07:41:48;87269.25;;;17.17;48.32
21623;BME280;10973;46.706;12.340;2023-05-23T07:44:17;87264.94;;;17.23;48.16
21623;BME280;10973;46.706;12.340;2023-05-23T07:46:47;87262.56;;;17.28;47.41
21623;BME280;10973;46.706;12.340;2023-05-23T07:49:14;87260.13;;;17.34;47.14
21623;BME280;10973;46.706;12.340;2023-05-23T07:51:42;87261.50;;;17.42;47.57
21623;BME280;10973;46.706;12.340;2023-05-23T07:54:09;87259.38;;;17.53;46.80
21623;BME280;10973;46.706;12.340;2023-05-23T07:56:36;87255.16;;;17.55;46.82
21623;BME280;10973;46.706;12.340;2023-05-23T07:59:04;87253.44;;;17.65;45.85
21623;BME280;10973;46.706;12.340;2023-05-23T08:01:31;87249.91;;;17.68;45.68
21623;BME280;10973;46.706;12.340;2023-05-23T08:03:59;87248.59;;;17.76;45.91
21623;BME280;10973;46.706;12.340;2023-05-23T08:06:26;87251.13;;;17.83;45.69
21623;BME280;10973;46.706;12.340;2023-05-23T08:08:53;87250.75;;;17.81;44.90
21623;BME280;10973;46.706;12.340;2023-05-23T08:11:21;87243.28;;;17.92;45.03
21623;BME280;10973;46.706;12.340;2023-05-23T08:13:48;87256.44;;;17.99;44.90
21623;BME280;10973;46.706;12.340;2023-05-23T08:16:15;87250.13;;;18.09;44.97
21623;BME280;10973;46.706;12.340;2023-05-23T08:18:43;87242.28;;;18.18;44.22
21623;BME280;10973;46.706;12.340;2023-05-23T08:21:10;87245.75;;;18.31;44.00
21623;BME280;10973;46.706;12.340;2023-05-23T08:23:38;87242.84;;;18.42;43.48
21623;BME280;10973;46.706;12.340;2023-05-23T08:26:05;87237.44;;;18.45;43.27
21623;BME280;10973;46.706;12.340;2023-05-23T08:28:32;87238.34;;;18.55;43.47
21623;BME280;10973;46.706;12.340;2023-05-23T08:31:00;87239.56;;;18.67;42.95
21623;BME280;10973;46.706;12.340;2023-05-23T08:33:27;87238.47;;;18.80;42.76
21623;BME280;10973;46.706;12.340;2023-05-23T08:35:54;87231.41;;;18.86;42.25
21623;BME280;10973;46.706;12.340;2023-05-23T08:38:22;87231.81;;;19.01;42.15
21623;BME280;10973;46.706;12.340;2023-05-23T08:40:50;87226.47;;;19.13;42.42
21623;BME280;10973;46.706;12.340;2023-05-23T08:43:19;87224.06;;;19.19;42.63
21623;BME280;10973;46.706;12.340;2023-05-23T08:45:48;87229.41;;;19.32;41.97
21623;BME280;10973;46.706;12.340;2023-05-23T08:48:38;87227.63;;;19.41;41.37
21623;BME280;10973;46.706;12.340;2023-05-23T08:51:08;87225.59;;;19.45;40.26
21623;BME280;10973;46.706;12.340;2023-05-23T08:53:55;87229.03;;;19.46;40.66
21623;BME280;10973;46.706;12.340;2023-05-23T08:56:23;87228.72;;;19.56;40.46
21623;BME280;10973;46.706;12.340;2023-05-23T08:58:52;87231.19;;;19.51;39.55
21623;BME280;10973;46.706;12.340;2023-05-23T09:01:22;87222.22;;;19.57;39.76
21623;BME280;10973;46.706;12.340;2023-05-23T09:03:50;87225.09;;;19.75;39.91
21623;BME280;10973;46.706;12.340;2023-05-23T09:06:20;87223.50;;;19.78;38.72
21623;BME280;10973;46.706;12.340;2023-05-23T09:08:48;87227.88;;;19.84;39.33
21623;BME280;10973;46.706;12.340;2023-05-23T09:11:15;87221.88;;;19.93;39.03
21623;BME280;10973;46.706;12.340;2023-05-23T09:13:43;87225.09;;;20.01;38.94
21623;BME280;10973;46.706;12.340;2023-05-23T09:16:11;87219.84;;;20.10;38.44
21623;BME280;10973;46.706;12.340;2023-05-23T09:18:41;87218.56;;;20.14;38.78
21623;BME280;10973;46.706;12.340;2023-05-23T09:21:10;87210.66;;;20.23;37.74
21623;BME280;10973;46.706;12.340;2023-05-23T09:23:40;87212.53;;;20.35;37.43
21623;BME280;10973;46.706;12.340;2023-05-23T09:26:09;87212.75;;;20.41;38.00
21623;BME280;10973;46.706;12.340;2023-05-23T09:28:38;87213.28;;;20.48;37.84
21623;BME280;10973;46.706;12.340;2023-05-23T09:31:07;87208.44;;;20.56;37.52
21623;BME280;10973;46.706;12.340;2023-05-23T09:33:49;87201.06;;;20.60;37.82
21623;BME280;10973;46.706;12.340;2023-05-23T09:36:17;87196.63;;;20.66;37.54
21623;BME280;10973;46.706;12.340;2023-05-23T09:38:46;87201.00;;;20.73;36.86
21623;BME280;10973;46.706;12.340;2023-05-23T09:41:14;87199.38;;;20.75;37.07
21623;BME280;10973;46.706;12.340;2023-05-23T09:43:53;87198.28;;;20.85;36.60
21623;BME280;10973;46.706;12.340;2023-05-23T09:46:21;87196.84;;;20.93;36.94
21623;BME280;10973;46.706;12.340;2023-05-23T09:48:50;87192.56;;;20.96;35.14
21623;BME280;10973;46.706;12.340;2023-05-23T09:51:20;87186.09;;;21.06;35.47
21623;BME280;10973;46.706;12.340;2023-05-23T09:53:49;87192.16;;;21.19;35.64
21623;BME280;10973;46.706;12.340;2023-05-23T09:56:18;87188.47;;;21.25;36.76
21623;BME280;10973;46.706;12.340;2023-05-23T09:58:48;87195.50;;;21.32;35.70
21623;BME280;10973;46.706;12.340;2023-05-23T10:01:17;87187.06;;;21.43;34.64
21623;BME280;10973;46.706;12.340;2023-05-23T10:03:51;87193.00;;;21.38;34.95
21623;BME280;10973;46.706;12.340;2023-05-23T10:06:30;87186.75;;;21.41;34.69
21623;BME280;10973;46.706;12.340;2023-05-23T10:09:06;87182.25;;;21.38;34.69
21623;BME280;10973;46.706;12.340;2023-05-23T10:14:29;87185.78;;;21.25;33.07
21623;BME280;10973;46.706;12.340;2023-05-23T10:17:18;87182.16;;;21.19;32.31
21623;BME280;10973;46.706;12.340;2023-05-23T10:20:03;87177.81;;;21.13;33.30
21623;BME280;10973;46.706;12.340;2023-05-23T10:22:32;87185.47;;;21.23;33.23
21623;BME280;10973;46.706;12.340;2023-05-23T10:24:59;87190.50;;;21.43;32.28
21623;BME280;10973;46.706;12.340;2023-05-23T10:27:27;87180.00;;;21.58;31.35
21623;BME280;10973;46.706;12.340;2023-05-23T10:29:56;87181.53;;;21.68;32.75
21623;BME280;10973;46.706;12.340;2023-05-23T10:32:26;87179.03;;;21.73;31.07
21623;BME280;10973;46.706;12.340;2023-05-23T10:37:56;87171.22;;;21.88;30.28
21623;BME280;10973;46.706;12.340;2023-05-23T10:43:30;87175.16;;;22.05;30.81
21623;BME280;10973;46.706;12.340;2023-05-23T10:45:58;87178.44;;;22.09;32.02
21623;BME280;10973;46.706;12.340;2023-05-23T10:48:40;87178.28;;;22.13;30.82
21623;BME280;10973;46.706;12.340;2023-05-23T10:51:10;87177.88;;;22.14;32.11
21623;BME280;10973;46.706;12.340;2023-05-23T10:53:41;87183.84;;;22.18;32.22
21623;BME280;10973;46.706;12.340;2023-05-23T10:56:15;87182.34;;;22.17;31.82
21623;BME280;10973;46.706;12.340;2023-05-23T10:58:45;87180.69;;;22.11;33.94
21623;BME280;10973;46.706;12.340;2023-05-23T11:01:14;87183.34;;;22.01;35.32
21623;BME280;10973;46.706;12.340;2023-05-23T11:06:40;87209.38;;;21.61;43.95
21623;BME280;10973;46.706;12.340;2023-05-23T11:09:16;87211.28;;;21.30;44.32
21623;BME280;10973;46.706;12.340;2023-05-23T11:19:57;87224.47;;;19.97;51.07
21623;BME280;10973;46.706;12.340;2023-05-23T11:22:28;87222.53;;;19.72;52.28
21623;BME280;10973;46.706;12.340;2023-05-23T11:24:57;87225.28;;;19.56;52.51
21623;BME280;10973;46.706;12.340;2023-05-23T11:30:12;87237.94;;;19.27;54.39
21623;BME280;10973;46.706;12.340;2023-05-23T11:32:48;87237.81;;;19.17;54.94
21623;BME280;10973;46.706;12.340;2023-05-23T11:35:16;87241.63;;;19.04;55.61
21623;BME280;10973;46.706;12.340;2023-05-23T11:37:44;87245.22;;;18.97;55.33
21623;BME280;10973;46.706;12.340;2023-05-23T11:40:39;87242.94;;;18.83;57.17
21623;BME280;10973;46.706;12.340;2023-05-23T11:43:14;87252.63;;;18.77;57.86
21623;BME280;10973;46.706;12.340;2023-05-23T11:45:42;87256.09;;;18.62;58.63
21623;BME280;10973;46.706;12.340;2023-05-23T11:48:15;87244.75;;;18.58;58.51
21623;BME280;10973;46.706;12.340;2023-05-23T11:50:53;87257.63;;;18.46;57.06
21623;BME280;10973;46.706;12.340;2023-05-23T11:53:22;87265.34;;;18.41;57.49
21623;BME280;10973;46.706;12.340;2023-05-23T11:56:00;87252.50;;;18.36;57.76
21623;BME280;10973;46.706;12.340;2023-05-23T11:58:34;87256.44;;;18.31;58.32
21623;BME280;10973;46.706;12.340;2023-05-23T12:01:08;87252.44;;;18.39;57.28
21623;BME280;10973;46.706;12.340;2023-05-23T12:03:50;87248.50;;;18.44;57.54
21623;BME280;10973;46.706;12.340;2023-05-23T12:06:19;87248.44;;;18.47;58.25
21623;BME280;10973;46.706;12.340;2023-05-23T12:08:46;87246.75;;;18.53;57.75
21623;BME280;10973;46.706;12.340;2023-05-23T12:11:14;87249.78;;;18.56;57.90
21623;BME280;10973;46.706;12.340;2023-05-23T12:13:42;87256.09;;;18.62;58.44
21623;BME280;10973;46.706;12.340;2023-05-23T12:16:13;87260.94;;;18.67;59.26
21623;BME280;10973;46.706;12.340;2023-05-23T12:18:41;87256.91;;;18.75;59.04
21623;BME280;10973;46.706;12.340;2023-05-23T12:21:10;87250.72;;;18.78;59.00
21623;BME280;10973;46.706;12.340;2023-05-23T12:23:38;87252.03;;;18.86;59.31
21623;BME280;10973;46.706;12.340;2023-05-23T12:26:07;87246.59;;;18.89;57.92
21623;BME280;10973;46.706;12.340;2023-05-23T12:28:39;87249.09;;;18.96;57.19
21623;BME280;10973;46.706;12.340;2023-05-23T12:31:17;87242.88;;;18.99;53.73
21623;BME280;10973;46.706;12.340;2023-05-23T12:33:46;87237.13;;;19.01;53.09
21623;BME280;10973;46.706;12.340;2023-05-23T12:36:29;87243.88;;;19.05;52.58
21623;BME280;10973;46.706;12.340;2023-05-23T12:39:04;87235.25;;;19.14;52.90
21623;BME280;10973;46.706;12.340;2023-05-23T12:41:32;87225.97;;;19.18;52.68
21623;BME280;10973;46.706;12.340;2023-05-23T12:44:01;87231.38;;;19.15;51.88
21623;BME280;10973;46.706;12.340;2023-05-23T12:46:29;87229.72;;;19.21;51.76
21623;BME280;10973;46.706;12.340;2023-05-23T12:48:57;87218.72;;;19.19;51.59
21623;BME280;10973;46.706;12.340;2023-05-23T12:51:24;87220.84;;;19.24;51.39
21623;BME280;10973;46.706;12.340;2023-05-23T12:53:53;87228.25;;;19.33;51.39
21623;BME280;10973;46.706;12.340;2023-05-23T12:56:20;87221.66;;;19.37;51.61
21623;BME280;10973;46.706;12.340;2023-05-23T12:58:48;87224.66;;;19.39;50.95
21623;BME280;10973;46.706;12.340;2023-05-23T13:01:16;87228.28;;;19.45;51.00
21623;BME280;10973;46.706;12.340;2023-05-23T13:03:47;87225.28;;;19.43;52.94
21623;BME280;10973;46.706;12.340;2023-05-23T13:06:18;87225.59;;;19.45;53.05
21623;BME280;10973;46.706;12.340;2023-05-23T13:08:45;87220.69;;;19.44;53.95
21623;BME280;10973;46.706;12.340;2023-05-23T13:11:13;87219.31;;;19.39;55.42
21623;BME280;10973;46.706;12.340;2023-05-23T13:13:40;87221.66;;;19.37;57.27
21623;BME280;10973;46.706;12.340;2023-05-23T13:16:08;87234.00;;;19.31;58.39
21623;BME280;10973;46.706;12.340;2023-05-23T13:18:35;87237.94;;;19.27;58.25
21623;BME280;10973;46.706;12.340;2023-05-23T13:21:03;87238.88;;;19.20;58.71
21623;BME280;10973;46.706;12.340;2023-05-23T13:23:34;87249.69;;;19.16;57.00
21623;BME280;10973;46.706;12.340;2023-05-23T13:26:02;87240.47;;;19.05;55.27
21623;BME280;10973;46.706;12.340;2023-05-23T13:28:30;87241.81;;;18.97;52.52